Time;durP1;ratioP1;P1;durP2;ratioP2;P2;SDS_P1;SDS_P2;PMS_P1;PMS_P2;Temp;Humidity;BMP_temperature;BMP_pressure;BME280_temperature;BME280_humidity;BME280_pressure;Samples;Min_cycle;Max_cycle;Signal;HPM_P1;HPM_P2
2023/08/23 00:02:14;;;;;;;1.20;1.20;;;;;;;15.86;88.39;101965.84;5033018;28;20078;-85
2023/08/23 00:04:40;;;;;;;1.63;1.30;;;;;;;15.85;88.55;101961.50;5035350;28;20160;-84
2023/08/23 00:07:05;;;;;;;1.33;1.23;;;;;;;15.84;88.59;101968.50;5036581;28;20013;-85
2023/08/23 00:09:31;;;;;;;2.10;1.50;;;;;;;15.79;88.49;101970.31;5036987;28;20025;-85
2023/08/23 00:11:56;;;;;;;1.23;1.13;;;;;;;15.78;88.60;101970.34;5035640;28;20125;-85
2023/08/23 00:14:21;;;;;;;1.50;1.40;;;;;;;15.71;88.79;101966.97;5035855;28;20029;-85
2023/08/23 00:16:47;;;;;;;1.07;1.07;;;;;;;15.71;88.72;101959.13;5036368;28;20037;-84
2023/08/23 00:19:12;;;;;;;1.00;1.00;;;;;;;15.64;88.97;101949.69;5035300;28;20025;-85
2023/08/23 00:21:37;;;;;;;1.27;1.17;;;;;;;15.65;88.96;101961.88;5108843;22;20049;-85
2023/08/23 00:24:03;;;;;;;1.10;1.10;;;;;;;15.62;88.87;101954.06;5056061;28;20436;-85
2023/08/23 00:26:29;;;;;;;1.27;1.17;;;;;;;15.54;89.12;101949.81;5055883;28;20025;-84
2023/08/23 00:28:55;;;;;;;1.30;1.20;;;;;;;15.53;89.03;101955.97;5056287;28;20047;-85
2023/08/23 00:31:20;;;;;;;0.90;0.90;;;;;;;15.48;89.43;101951.72;5055066;28;20527;-85
2023/08/23 00:33:45;;;;;;;1.07;1.07;;;;;;;15.47;89.54;101948.22;5056602;28;20032;-84
2023/08/23 00:36:15;;;;;;;1.10;1.10;;;;;;;15.41;89.60;101946.56;5059836;28;20021;-84
2023/08/23 00:38:40;;;;;;;1.40;1.30;;;;;;;15.33;89.67;101927.56;5056693;28;20124;-84
2023/08/23 00:41:06;;;;;;;1.30;1.20;;;;;;;15.34;89.64;101924.06;5057245;28;20021;-85
2023/08/23 00:43:31;;;;;;;1.17;1.07;;;;;;;15.28;89.61;101917.19;5058709;28;20017;-85
2023/08/23 00:45:57;;;;;;;1.00;1.00;;;;;;;15.37;89.66;101936.19;5058133;28;20025;-85
2023/08/23 00:48:23;;;;;;;1.00;1.00;;;;;;;15.24;89.83;101917.25;5057366;28;20039;-84
2023/08/23 00:51:14;;;;;;;1.00;1.00;;;;;;;15.34;90.24;101937.13;5055936;28;20108;-85
2023/08/23 00:53:46;;;;;;;1.17;1.17;;;;;;;15.31;89.94;101933.72;5055090;28;20071;-84
2023/08/23 00:56:17;;;;;;;1.05;1.05;;;;;;;15.28;89.95;101924.16;5041409;28;20021;-84
2023/08/23 00:58:55;;;;;;;1.40;1.30;;;;;;;15.26;90.06;101920.69;5035815;28;20029;-85
2023/08/23 01:01:29;;;;;;;1.08;1.05;;;;;;;15.10;90.09;101905.28;5034984;28;20035;-85
2023/08/23 01:03:55;;;;;;;1.55;1.45;;;;;;;15.16;90.18;101917.38;5036087;28;20053;-85
2023/08/23 01:06:46;;;;;;;1.27;1.27;;;;;;;15.20;90.23;101932.13;5034981;28;20025;-85
2023/08/23 01:09:38;;;;;;;1.13;1.13;;;;;;;15.12;90.22;101915.72;5035408;28;20330;-85
2023/08/23 01:12:13;;;;;;;1.27;1.17;;;;;;;15.15;90.15;101926.13;5034829;28;20025;-85
2023/08/23 01:14:39;;;;;;;1.02;1.02;;;;;;;15.12;90.38;101929.66;5034025;28;20029;-84
2023/08/23 01:17:07;;;;;;;0.97;0.97;;;;;;;15.09;90.31;101934.06;5035001;28;20026;-84
2023/08/23 01:19:45;;;;;;;1.08;1.08;;;;;;;15.01;90.41;101933.31;5035573;28;20101;-85
2023/08/23 01:22:13;;;;;;;0.93;0.93;;;;;;;15.02;90.22;101937.66;5034475;28;20548;-85
2023/08/23 01:24:40;;;;;;;1.30;1.20;;;;;;;14.97;90.38;101933.38;5051950;28;20031;-84
2023/08/23 01:27:05;;;;;;;;;;;;;;;15.01;90.52;101942.03;5055234;28;20021;-84
2023/08/23 01:29:30;;;;;;;1.07;1.07;;;;;;;14.93;90.65;101926.47;5054675;28;19966;-84
2023/08/23 01:32:05;;;;;;;1.40;1.30;;;;;;;14.99;90.68;101935.97;5054757;28;20162;-84
2023/08/23 01:34:37;;;;;;;1.23;1.13;;;;;;;14.96;90.47;101939.50;5054585;28;20039;-84
2023/08/23 01:37:05;;;;;;;1.20;1.15;;;;;;;14.92;90.43;101932.59;5054881;28;20031;-84
2023/08/23 01:39:32;;;;;;;1.58;1.30;;;;;;;14.90;90.62;101923.06;5054956;28;20059;-84
2023/08/23 01:42:01;;;;;;;1.25;1.15;;;;;;;14.92;90.75;101942.16;5054292;28;20025;-85
2023/08/23 01:44:32;;;;;;;1.00;1.00;;;;;;;14.88;90.75;101933.50;5054124;28;20112;-84
2023/08/23 01:46:57;;;;;;;1.25;1.25;;;;;;;14.87;90.95;101926.56;5055580;28;20436;-84
2023/08/23 01:49:23;;;;;;;1.53;1.30;;;;;;;14.78;90.99;101911.03;5053236;28;20032;-84
2023/08/23 01:51:48;;;;;;;1.13;1.13;;;;;;;14.85;90.78;101923.13;5043831;28;20385;-84
2023/08/23 01:54:16;;;;;;;1.23;1.20;;;;;;;14.82;90.82;101924.03;5034265;28;20115;-84
2023/08/23 01:57:02;;;;;;;1.05;0.98;;;;;;;14.77;90.84;101919.75;5034014;28;20367;-84
2023/08/23 01:59:28;;;;;;;1.35;1.05;;;;;;;14.79;91.10;101928.44;5034329;28;20048;-84
2023/08/23 02:01:53;;;;;;;0.93;0.93;;;;;;;14.73;91.07;101913.72;5034553;28;20394;-84
2023/08/23 02:04:19;;;;;;;1.47;0.73;;;;;;;14.68;91.15;101915.56;5033480;28;20068;-84
2023/08/23 02:06:45;;;;;;;1.17;1.05;;;;;;;14.71;91.14;101927.72;5034873;28;20087;-84
2023/08/23 02:09:16;;;;;;;1.00;1.00;;;;;;;14.68;91.22;101928.63;5034313;28;20025;-84
2023/08/23 02:11:41;;;;;;;1.08;1.08;;;;;;;14.54;91.51;101902.66;5033458;28;20496;-84
2023/08/23 02:14:07;;;;;;;1.67;1.07;;;;;;;14.60;91.43;101917.38;5034058;28;20401;-83
2023/08/23 02:16:32;;;;;;;1.40;1.30;;;;;;;14.60;91.31;101918.25;5034522;28;20079;-84
2023/08/23 02:18:57;;;;;;;1.30;1.20;;;;;;;14.60;91.31;101922.59;5033407;28;20025;-83
2023/08/23 02:21:23;;;;;;;1.00;1.00;;;;;;;14.59;91.41;101928.69;5033451;28;20067;-84
2023/08/23 02:24:00;;;;;;;1.30;1.20;;;;;;;14.48;91.54;101911.44;5033884;28;20104;-84
2023/08/23 02:26:38;;;;;;;0.98;0.98;;;;;;;14.49;91.61;101914.94;5033020;28;20414;-84
2023/08/23 02:29:03;;;;;;;1.00;1.00;;;;;;;14.48;91.61;101916.66;5034072;28;20025;-83
2023/08/23 02:31:34;;;;;;;1.00;1.00;;;;;;;14.46;91.47;101910.63;5033326;28;20022;-84
2023/08/23 02:34:20;;;;;;;0.77;0.77;;;;;;;14.43;91.57;101907.16;5034036;28;20108;-84
2023/08/23 02:36:45;;;;;;;1.23;1.13;;;;;;;14.35;91.64;101902.94;5033533;28;20032;-84
2023/08/23 02:39:12;;;;;;;1.90;1.30;;;;;;;14.29;91.68;101892.59;5033112;28;20029;-84
2023/08/23 02:41:37;;;;;;;;;;;;;;;14.42;91.77;101921.09;5034494;28;20045;-85
2023/08/23 02:44:02;;;;;;;1.30;1.20;;;;;;;14.40;91.99;101925.53;5033815;28;19975;-84
2023/08/23 02:46:34;;;;;;;0.95;0.90;;;;;;;14.33;91.94;101915.13;5112003;27;1324252;-83
2023/08/23 02:48:59;;;;;;;1.00;1.00;;;;;;;14.32;92.04;101913.41;5131144;27;20098;-83
2023/08/23 02:51:24;;;;;;;0.70;0.70;;;;;;;14.25;92.04;101911.78;5130616;27;20387;-83
2023/08/23 02:53:50;;;;;;;1.00;1.00;;;;;;;14.26;92.35;101913.50;5130593;27;20031;-83
2023/08/23 02:56:15;;;;;;;1.10;1.10;;;;;;;14.25;92.49;101908.28;5129987;28;20028;-83
2023/08/23 02:58:40;;;;;;;1.10;1.10;;;;;;;14.24;92.63;101909.19;5131016;27;20027;-83
2023/08/23 03:01:06;;;;;;;0.97;0.93;;;;;;;14.21;92.06;101904.88;5130164;27;20396;-83
2023/08/23 03:03:31;;;;;;;0.83;0.83;;;;;;;14.17;92.29;101898.81;5130636;27;20019;-83
2023/08/23 03:05:57;;;;;;;0.83;0.83;;;;;;;14.15;92.34;101894.50;5129870;27;20031;-83
2023/08/23 03:08:23;;;;;;;1.20;1.20;;;;;;;14.13;92.23;101891.06;5130860;27;20028;-83
2023/08/23 03:10:49;;;;;;;1.10;1.10;;;;;;;14.16;92.23;101899.69;5130802;27;20019;-83
2023/08/23 03:13:15;;;;;;;0.90;0.90;;;;;;;14.14;92.35;101900.63;5129254;27;20850;-82
2023/08/23 03:15:40;;;;;;;1.10;1.10;;;;;;;14.09;92.92;101899.78;5130149;27;20152;-82
2023/08/23 03:18:05;;;;;;;1.00;1.00;;;;;;;14.05;92.54;101897.25;5129835;28;20273;-83
2023/08/23 03:20:31;;;;;;;1.07;1.07;;;;;;;14.02;92.44;101897.28;5130098;27;20030;-83
2023/08/23 03:22:56;;;;;;;1.23;1.20;;;;;;;14.00;92.47;101900.81;5130298;27;20068;-83
2023/08/23 03:25:21;;;;;;;0.70;0.70;;;;;;;13.98;92.57;101897.34;5129814;27;20324;-83
2023/08/23 03:27:52;;;;;;;0.83;0.83;;;;;;;13.98;92.55;101899.97;5129504;27;20043;-83
2023/08/23 03:30:21;;;;;;;1.13;1.10;;;;;;;13.95;92.72;101893.03;5129960;27;20027;-82
2023/08/23 03:32:47;;;;;;;1.38;1.30;;;;;;;13.93;92.62;101893.91;5130297;27;20023;-83
2023/08/23 03:35:13;;;;;;;1.17;1.07;;;;;;;13.93;92.80;101896.53;5129520;27;20032;-82
2023/08/23 03:37:38;;;;;;;1.30;1.20;;;;;;;13.90;92.78;101900.91;5130523;27;20022;-83
2023/08/23 03:40:04;;;;;;;1.20;1.20;;;;;;;13.85;93.00;101897.50;5129628;27;20107;-83
2023/08/23 03:42:29;;;;;;;1.13;1.13;;;;;;;13.85;93.07;101897.50;5129250;27;20540;-82
2023/08/23 03:44:55;;;;;;;1.20;1.20;;;;;;;13.85;93.20;101899.22;5128950;27;20289;-82
2023/08/23 03:47:20;;;;;;;2.20;1.60;;;;;;;13.86;93.10;101895.72;5129542;27;20072;-83
2023/08/23 03:49:48;;;;;;;1.80;1.70;;;;;;;13.87;93.12;101898.34;5129073;27;20080;-83
2023/08/23 03:52:13;;;;;;;1.80;1.50;;;;;;;13.87;93.15;101900.06;5129708;27;20024;-83
2023/08/23 03:54:38;;;;;;;1.50;1.30;;;;;;;13.79;93.23;101886.25;5129289;27;20027;-82
2023/08/23 03:57:04;;;;;;;1.80;1.70;;;;;;;13.86;92.93;101901.84;5120338;28;20077;-83
2023/08/23 03:59:29;;;;;;;1.50;1.40;;;;;;;13.86;92.98;101900.94;5115723;28;20023;-83
2023/08/23 04:01:54;;;;;;;1.50;1.40;;;;;;;13.85;93.06;101901.81;5115831;28;20395;-83
2023/08/23 04:04:20;;;;;;;1.40;1.30;;;;;;;13.83;93.22;101901.88;5114831;28;20028;-82
2023/08/23 04:06:45;;;;;;;1.50;1.30;;;;;;;13.82;93.51;101899.28;5115657;28;20035;-82
2023/08/23 04:09:10;;;;;;;1.03;1.03;;;;;;;13.82;93.37;101901.88;5115692;28;20077;-83
2023/08/23 04:11:36;;;;;;;0.70;0.70;;;;;;;13.84;93.68;101902.75;5114640;28;20028;-82
2023/08/23 04:14:01;;;;;;;1.50;1.40;;;;;;;13.85;93.23;101907.06;5115471;28;20414;-82
2023/08/23 04:16:33;;;;;;;1.43;1.30;;;;;;;13.85;93.71;101907.06;5114685;27;20031;-82
2023/08/23 04:19:07;;;;;;;1.70;1.60;;;;;;;13.81;93.46;101905.38;5115584;28;20026;-82
2023/08/23 04:21:32;;;;;;;1.50;1.40;;;;;;;13.87;93.56;101902.69;5115925;28;20158;-82
2023/08/23 04:23:59;;;;;;;1.83;1.57;;;;;;;13.81;93.44;101906.22;5115128;28;20099;-82
2023/08/23 04:26:25;;;;;;;1.70;1.60;;;;;;;13.87;93.56;101910.50;5115219;28;20472;-83
2023/08/23 04:28:50;;;;;;;1.57;1.47;;;;;;;13.84;93.43;101910.56;5115417;28;20034;-82
2023/08/23 04:31:16;;;;;;;1.23;1.23;;;;;;;13.80;93.55;101908.88;5114792;28;20023;-82
2023/08/23 04:33:42;;;;;;;1.10;1.10;;;;;;;13.81;93.53;101911.44;5115483;28;20027;-82
2023/08/23 04:36:07;;;;;;;1.75;1.60;;;;;;;13.80;93.49;101907.09;5115283;28;20036;-83
2023/08/23 04:38:32;;;;;;;1.80;1.70;;;;;;;13.79;93.59;101907.13;5114273;28;20016;-82
2023/08/23 04:41:02;;;;;;;2.10;1.60;;;;;;;13.80;93.46;101912.31;5114815;28;20422;-82
2023/08/23 04:43:37;;;;;;;1.70;1.60;;;;;;;13.80;93.40;101912.31;5114656;28;20079;-83
2023/08/23 04:46:04;;;;;;;1.50;1.40;;;;;;;13.79;93.40;101909.75;5114141;28;20522;-83
2023/08/23 04:48:30;;;;;;;1.10;1.10;;;;;;;13.79;93.64;101914.97;5115342;28;20356;-82
2023/08/23 04:50:57;;;;;;;1.30;1.20;;;;;;;13.78;93.78;101902.78;5115504;28;20026;-83
2023/08/23 04:53:23;;;;;;;1.20;1.20;;;;;;;13.80;93.95;101907.09;5114038;28;20106;-83
2023/08/23 04:55:49;;;;;;;1.10;1.10;;;;;;;13.83;93.96;101906.22;5114904;28;20548;-82
2023/08/23 04:58:14;;;;;;;1.20;1.10;;;;;;;13.81;94.18;101903.63;5114691;28;20027;-83
2023/08/23 05:00:40;;;;;;;1.07;1.07;;;;;;;13.85;93.95;101901.81;5113951;28;20068;-82
2023/08/23 05:03:06;;;;;;;1.03;1.03;;;;;;;13.85;93.98;101904.44;5114909;28;20471;-83
2023/08/23 05:05:31;;;;;;;0.90;0.90;;;;;;;13.89;94.11;101906.16;5114259;27;20023;-82
2023/08/23 05:07:57;;;;;;;1.30;1.20;;;;;;;13.90;94.15;101905.25;5113865;28;20023;-82
2023/08/23 05:10:22;;;;;;;0.83;0.83;;;;;;;13.91;94.23;101912.22;5113815;28;20024;-82
2023/08/23 05:12:47;;;;;;;0.70;0.70;;;;;;;13.94;94.35;101904.34;5114109;28;20097;-82
2023/08/23 05:15:13;;;;;;;1.10;1.10;;;;;;;13.96;94.54;101905.16;5114166;28;20076;-83
2023/08/23 05:17:38;;;;;;;0.60;0.60;;;;;;;14.00;94.63;101896.44;5114468;28;20024;-83
2023/08/23 05:20:05;;;;;;;0.90;0.90;;;;;;;14.04;94.74;101892.03;5113347;28;20032;-82
2023/08/23 05:22:30;;;;;;;0.85;0.85;;;;;;;14.09;94.80;101897.19;5114631;28;20487;-82
2023/08/23 05:24:56;;;;;;;0.87;0.80;;;;;;;14.16;94.70;101901.47;5114610;28;20031;-83
2023/08/23 05:27:21;;;;;;;0.80;0.80;;;;;;;14.20;94.45;101892.69;5113321;28;20030;-82
2023/08/23 05:29:46;;;;;;;1.00;1.00;;;;;;;14.26;94.83;101892.63;5114497;28;20036;-83
2023/08/23 05:32:12;;;;;;;0.80;0.80;;;;;;;14.30;94.78;101902.13;5114132;28;20027;-83
2023/08/23 05:34:41;;;;;;;1.23;1.13;;;;;;;14.34;94.58;101895.97;5113959;27;20032;-81
2023/08/23 05:37:07;;;;;;;1.60;1.20;;;;;;;14.37;94.42;101902.91;5113637;28;20024;-81
2023/08/23 05:39:32;;;;;;;1.10;1.10;;;;;;;14.44;94.59;101912.38;5114502;28;20020;-81
2023/08/23 05:41:58;;;;;;;1.23;1.13;;;;;;;14.45;94.42;101908.00;5113121;28;20510;-82
2023/08/23 05:44:23;;;;;;;1.07;1.00;;;;;;;14.45;94.74;101911.50;5113916;28;20019;-84
2023/08/23 05:46:48;;;;;;;1.27;1.17;;;;;;;14.51;94.71;101905.34;5113542;28;20459;-83
2023/08/23 05:49:13;;;;;;;1.30;1.30;;;;;;;14.54;94.60;101909.63;5113375;28;20108;-86
2023/08/23 05:51:39;;;;;;;1.40;1.30;;;;;;;14.55;94.64;101901.78;5113819;28;20506;-82
2023/08/23 05:54:04;;;;;;;1.13;1.13;;;;;;;14.61;94.61;101912.16;5113862;28;20041;-82
2023/08/23 05:56:29;;;;;;;1.33;1.27;;;;;;;14.64;94.79;101919.06;5112671;28;20031;-83
2023/08/23 05:58:55;;;;;;;1.20;1.20;;;;;;;14.68;94.37;101912.94;5113766;28;20058;-82
2023/08/23 06:01:20;;;;;;;1.60;1.50;;;;;;;14.72;94.34;101916.38;5113526;28;20049;-82
2023/08/23 06:03:45;;;;;;;1.70;1.60;;;;;;;14.76;94.11;101916.28;5112924;28;20016;-82
2023/08/23 06:06:14;;;;;;;1.77;1.67;;;;;;;14.76;94.26;101903.22;5113180;28;20460;-82
2023/08/23 06:08:39;;;;;;;1.90;1.45;;;;;;;14.85;94.32;101914.41;5113736;28;20059;-82
2023/08/23 06:11:04;;;;;;;1.20;1.20;;;;;;;14.87;94.29;101921.34;5112643;28;20058;-82
2023/08/23 06:13:30;;;;;;;1.43;1.33;;;;;;;14.86;94.38;101917.00;5113694;28;20180;-82
2023/08/23 06:16:01;;;;;;;1.40;1.30;;;;;;;14.93;94.40;101920.38;5113122;28;20356;-82
2023/08/23 06:18:26;;;;;;;1.13;1.13;;;;;;;14.93;94.91;101916.03;5113575;28;20036;-82
2023/08/23 06:20:52;;;;;;;1.20;1.10;;;;;;;15.00;94.89;101918.53;5113394;28;20471;-82
2023/08/23 06:23:23;;;;;;;1.00;0.87;;;;;;;15.04;95.65;101921.06;5112141;28;20047;-82
2023/08/23 06:25:48;;;;;;;0.68;0.68;;;;;;;15.08;95.52;101920.13;5112924;28;20120;-82
2023/08/23 06:28:14;;;;;;;0.73;0.73;;;;;;;15.13;95.39;101925.28;5113070;28;20144;-82
2023/08/23 06:30:39;;;;;;;0.82;0.82;;;;;;;15.22;95.74;101929.50;5112310;28;20015;-82
2023/08/23 06:33:05;;;;;;;0.80;0.80;;;;;;;15.30;96.11;101930.22;5113230;28;20031;-82
2023/08/23 06:35:31;;;;;;;0.85;0.85;;;;;;;15.38;96.00;101927.47;5113349;28;20027;-82
2023/08/23 06:37:56;;;;;;;0.70;0.70;;;;;;;15.44;96.98;101923.00;5112856;28;20391;-83
2023/08/23 06:40:21;;;;;;;1.23;1.13;;;;;;;15.49;98.78;101917.66;5112946;28;20032;-82
2023/08/23 06:42:47;;;;;;;1.47;1.37;;;;;;;15.58;100.00;101927.94;5113518;28;20024;-82
2023/08/23 06:45:12;;;;;;;1.50;1.40;;;;;;;15.64;100.00;101920.91;5112130;28;20054;-83
2023/08/23 06:47:38;;;;;;;1.77;1.67;;;;;;;15.73;100.00;101929.41;5113671;28;20418;-83
2023/08/23 06:50:03;;;;;;;2.67;1.80;;;;;;;15.80;100.00;101924.91;5112133;28;20030;-81
2023/08/23 06:52:29;;;;;;;1.57;1.47;;;;;;;15.89;100.00;101923.91;5110370;28;20032;-83
2023/08/23 06:54:55;;;;;;;1.70;1.60;;;;;;;15.96;99.65;101928.13;5112760;28;20027;-82
2023/08/23 06:57:28;;;;;;;1.25;1.15;;;;;;;16.07;99.72;101933.16;5113009;28;20023;-80
2023/08/23 06:59:54;;;;;;;0.70;0.70;;;;;;;16.17;99.78;101937.28;5101270;28;20043;-81
2023/08/23 07:02:19;;;;;;;1.00;1.00;;;;;;;16.26;100.00;101931.00;5092521;28;20024;-84
2023/08/23 07:04:44;;;;;;;1.70;1.60;;;;;;;16.40;100.00;101945.53;5092478;28;20028;-85
2023/08/23 07:07:09;;;;;;;0.93;0.93;;;;;;;16.46;100.00;101946.25;5091556;28;20095;-84
2023/08/23 07:09:35;;;;;;;1.63;1.53;;;;;;;17.38;100.00;101942.31;5092834;28;20371;-84
2023/08/23 07:12:00;;;;;;;2.13;1.93;;;;;;;19.62;100.00;101941.63;5092543;28;20035;-87
2023/08/23 07:14:25;;;;;;;2.20;2.00;;;;;;;21.99;97.70;101950.56;5089177;28;20111;-86
2023/08/23 07:16:51;;;;;;;1.80;1.70;;;;;;;23.95;89.27;101956.78;5090796;28;20066;-88
2023/08/23 07:19:16;;;;;;;2.40;2.20;;;;;;;25.11;81.40;101953.78;5091373;28;20024;-87
2023/08/23 07:22:00;;;;;;;2.07;1.87;;;;;;;25.42;78.94;101945.81;5089633;28;20601;-87
2023/08/23 07:24:25;;;;;;;1.70;1.60;;;;;;;25.20;75.15;101960.38;5092034;28;20026;-87
2023/08/23 07:26:50;;;;;;;1.80;1.70;;;;;;;24.76;75.78;101959.41;5093003;28;20020;-87
2023/08/23 07:29:16;;;;;;;2.37;2.00;;;;;;;24.06;75.34;101957.09;5112887;28;20103;-88
2023/08/23 07:31:45;;;;;;;2.43;1.87;;;;;;;23.46;75.66;101962.94;5113738;28;20471;-88
2023/08/23 07:34:10;;;;;;;2.53;1.98;;;;;;;22.88;76.07;101971.06;5116059;28;20023;-88
2023/08/23 07:36:53;;;;;;;2.47;2.00;;;;;;;22.26;79.43;101963.44;5116907;28;20050;-88
2023/08/23 07:39:19;;;;;;;2.95;2.05;;;;;;;21.87;81.07;101961.69;5116518;28;20024;-86
2023/08/23 07:41:44;;;;;;;2.03;1.83;;;;;;;21.65;82.38;101970.56;5116033;28;20020;-86
2023/08/23 07:44:16;;;;;;;2.87;2.13;;;;;;;21.38;81.34;101968.19;5115923;28;20403;-86
2023/08/23 07:46:41;;;;;;;1.85;1.75;;;;;;;21.12;82.13;101956.97;5116138;28;20070;-87
2023/08/23 07:49:06;;;;;;;1.93;1.80;;;;;;;21.03;84.29;101960.00;5115260;28;20028;-85
2023/08/23 07:51:32;;;;;;;2.00;1.70;;;;;;;20.97;83.90;101966.38;5116403;28;20026;-84
2023/08/23 07:54:15;;;;;;;1.70;1.60;;;;;;;20.85;84.17;101964.25;5116209;28;20020;-92
2023/08/23 07:56:43;;;;;;;2.42;2.10;;;;;;;20.91;85.19;101971.91;5116571;28;20035;-94
2023/08/23 07:59:08;;;;;;;2.20;2.00;;;;;;;20.86;85.04;101957.19;5116349;28;20028;-89
2023/08/23 08:01:34;;;;;;;1.90;1.80;;;;;;;20.97;83.49;101978.72;5115660;28;20027;-89
2023/08/23 08:03:59;;;;;;;2.30;2.10;;;;;;;20.97;84.50;101969.03;5116586;28;20023;-89
2023/08/23 08:06:24;;;;;;;2.47;2.00;;;;;;;20.93;82.60;101967.44;5116332;28;20468;-90
2023/08/23 08:08:53;;;;;;;2.37;1.80;;;;;;;21.00;83.35;101972.47;5115972;27;20032;-89
2023/08/23 08:11:18;;;;;;;1.60;1.50;;;;;;;21.02;84.33;101968.84;5115822;28;20024;-80
2023/08/23 08:13:43;;;;;;;1.83;1.73;;;;;;;21.10;84.46;101971.16;5116194;28;20023;-78
2023/08/23 08:16:11;;;;;;;1.40;1.30;;;;;;;21.24;84.00;101965.28;5114606;28;20118;-86
2023/08/23 08:18:36;;;;;;;1.60;1.50;;;;;;;21.34;84.15;101966.59;5115823;28;20031;-85
2023/08/23 08:21:02;;;;;;;2.22;1.90;;;;;;;21.38;79.02;101965.56;5115301;28;20019;-85
2023/08/23 08:23:29;;;;;;;3.97;2.50;;;;;;;21.40;81.04;101974.25;5114683;28;20467;-85
2023/08/23 08:25:55;;;;;;;2.20;2.00;;;;;;;21.46;82.75;101973.13;5115572;28;20281;-85
2023/08/23 08:28:20;;;;;;;1.57;1.47;;;;;;;21.59;82.63;101976.13;5115321;28;20068;-86
2023/08/23 08:30:46;;;;;;;1.70;1.60;;;;;;;21.68;82.33;101981.00;5114891;28;20470;-86
2023/08/23 08:33:12;;;;;;;1.60;1.50;;;;;;;21.77;81.95;101984.16;5114871;28;20376;-86
2023/08/23 08:35:37;;;;;;;1.53;1.43;;;;;;;21.86;82.35;101975.81;5098463;28;20112;-95
2023/08/23 08:38:02;;;;;;;1.73;1.63;;;;;;;21.98;82.53;101977.06;5108602;28;20055;-84
2023/08/23 08:40:29;;;;;;;3.47;2.60;;;;;;;22.03;77.38;101972.41;5116458;28;20024;-85
2023/08/23 08:42:55;;;;;;;2.00;1.80;;;;;;;22.09;78.79;101972.16;5115170;28;20023;-86
2023/08/23 08:45:20;;;;;;;2.60;2.15;;;;;;;22.18;74.14;101962.94;5113761;28;20395;-86
2023/08/23 08:47:47;;;;;;;1.95;1.80;;;;;;;22.26;78.10;101967.84;5112925;28;20511;-86
2023/08/23 08:50:13;;;;;;;1.55;1.42;;;;;;;22.34;78.38;101961.28;5100822;28;20019;-86
2023/08/23 08:52:43;;;;;;;0.93;0.93;;;;;;;22.47;78.34;101964.22;5114049;28;20391;-86
2023/08/23 08:55:11;;;;;;;2.58;1.80;;;;;;;22.60;75.71;101961.84;5114695;28;20440;-86
2023/08/23 08:57:37;;;;;;;2.92;1.60;;;;;;;22.70;74.39;101969.34;5112417;28;20070;-85
2023/08/23 09:00:05;;;;;;;1.52;1.40;;;;;;;22.72;75.17;101972.75;5114590;28;20479;-87
2023/08/23 09:02:34;;;;;;;1.58;1.48;;;;;;;22.77;73.71;101968.09;5114915;28;20027;-88
2023/08/23 09:05:01;;;;;;;1.27;1.27;;;;;;;22.87;74.71;101972.00;5113639;28;20024;-85
2023/08/23 09:07:26;;;;;;;1.23;1.13;;;;;;;22.96;73.61;101963.63;5113846;28;20038;-85
2023/08/23 09:09:52;;;;;;;1.10;1.10;;;;;;;23.07;76.61;101972.81;5114907;28;20015;-82
2023/08/23 09:12:18;;;;;;;0.70;0.70;;;;;;;23.16;75.00;101968.81;5113639;28;20019;-83
2023/08/23 09:14:47;;;;;;;;;;;;;;;23.29;67.61;101970.81;5115431;28;20024;-83
2023/08/23 09:17:12;;;;;;;2.40;1.90;;;;;;;23.35;71.66;101968.78;5114768;28;19908;-84
2023/08/23 09:19:41;;;;;;;1.43;1.20;;;;;;;23.47;72.75;101969.94;5113755;28;20020;-81
2023/08/23 09:22:06;;;;;;;0.80;0.80;;;;;;;23.61;73.67;101972.69;5114082;28;20034;-85
2023/08/23 09:24:32;;;;;;;0.60;0.60;;;;;;;23.75;73.10;101969.34;5114490;28;20020;-85
2023/08/23 09:26:58;;;;;;;1.38;1.10;;;;;;;23.81;71.09;101965.50;5113544;28;20061;-86
2023/08/23 09:29:24;;;;;;;0.68;0.68;;;;;;;23.90;71.79;101967.66;5114266;28;20387;-86
2023/08/23 09:31:49;;;;;;;0.73;0.73;;;;;;;23.98;71.21;101973.41;5114453;28;20019;-86
2023/08/23 09:34:15;;;;;;;0.63;0.63;;;;;;;24.02;71.27;101974.09;5112829;28;20023;-86
2023/08/23 09:36:41;;;;;;;;;;;;;;;24.06;68.63;101980.97;5114908;28;20058;-86
2023/08/23 09:39:10;;;;;;;1.00;1.00;;;;;;;24.11;70.13;101984.19;5114072;28;19915;-86
2023/08/23 09:41:40;;;;;;;0.73;0.73;;;;;;;24.18;70.06;101984.72;5112822;28;20015;-86
2023/08/23 09:44:06;;;;;;;1.15;0.85;;;;;;;24.23;66.92;101965.91;5092957;28;20029;-86
2023/08/23 09:46:36;;;;;;;1.20;1.10;;;;;;;24.36;70.28;101969.59;5093520;28;20134;-86
2023/08/23 09:49:09;;;;;;;1.50;1.40;;;;;;;24.47;68.55;101964.53;5092713;28;20024;-86
2023/08/23 09:51:37;;;;;;;1.15;1.10;;;;;;;24.62;70.07;101961.97;5093582;28;20032;-86
2023/08/23 09:54:44;;;;;;;1.50;1.40;;;;;;;24.72;66.81;101959.63;5091727;28;20024;-86
2023/08/23 09:57:10;;;;;;;1.67;1.58;;;;;;;24.80;64.73;101966.22;5093186;28;20392;-86
2023/08/23 09:59:36;;;;;;;1.40;1.30;;;;;;;24.93;69.24;101965.50;5093164;28;20036;-86
2023/08/23 10:02:05;;;;;;;1.80;1.50;;;;;;;25.03;68.20;101971.16;5098040;28;20023;-86
2023/08/23 10:04:32;;;;;;;1.88;1.70;;;;;;;25.09;67.20;101969.00;5116050;28;20107;-86
2023/08/23 10:06:58;;;;;;;1.10;1.10;;;;;;;25.18;65.94;101966.72;5113425;28;20463;-85
2023/08/23 10:09:23;;;;;;;1.40;1.30;;;;;;;25.25;65.35;101970.72;5112967;28;20038;-86
2023/08/23 10:11:49;;;;;;;1.15;1.08;;;;;;;25.25;66.46;101965.41;5113037;28;20028;-86
2023/08/23 10:14:16;;;;;;;0.80;0.80;;;;;;;25.33;66.92;101972.91;5112657;28;20089;-86
2023/08/23 10:16:43;;;;;;;0.80;0.80;;;;;;;25.44;63.40;101966.00;5112557;28;20024;-86
2023/08/23 10:19:09;;;;;;;0.93;0.93;;;;;;;25.55;66.49;101962.72;5113249;28;20126;-85
2023/08/23 10:21:34;;;;;;;;;;;;;;;25.64;64.02;101961.31;5114187;28;20019;-85
2023/08/23 10:24:07;;;;;;;1.30;1.20;;;;;;;25.69;65.45;101963.69;5112827;28;19911;-87
2023/08/23 10:26:45;;;;;;;1.00;0.98;;;;;;;25.83;65.96;101960.16;5113388;28;20066;-85
2023/08/23 10:29:10;;;;;;;1.00;0.90;;;;;;;25.89;65.50;101959.78;5111907;28;20062;-86
2023/08/23 10:31:51;;;;;;;0.77;0.77;;;;;;;25.99;65.87;101958.25;5113528;28;20059;-86
2023/08/23 10:34:28;;;;;;;0.93;0.70;;;;;;;26.14;65.49;101959.09;5113195;28;20048;-86
2023/08/23 10:36:54;;;;;;;2.35;1.60;;;;;;;26.26;62.02;101954.78;5112963;28;20084;-87
2023/08/23 10:39:26;;;;;;;0.90;0.90;;;;;;;26.34;64.45;101964.94;5112982;28;20019;-86
2023/08/23 10:41:53;;;;;;;0.80;0.80;;;;;;;26.43;60.13;101964.34;5112406;28;20119;-87
2023/08/23 10:44:20;;;;;;;1.55;1.08;;;;;;;26.46;63.13;101957.97;5111887;28;20521;-87
2023/08/23 10:46:46;;;;;;;1.05;1.02;;;;;;;26.56;56.26;101959.09;5112899;28;20047;-86
2023/08/23 10:49:13;;;;;;;1.90;1.70;;;;;;;26.51;60.06;101962.00;5112960;28;20375;-86
2023/08/23 10:51:41;;;;;;;1.40;1.30;;;;;;;26.53;56.54;101953.94;5112608;28;20028;-85
2023/08/23 10:54:10;;;;;;;1.95;1.27;;;;;;;26.62;60.58;101953.34;5113075;28;20031;-86
2023/08/23 10:56:36;;;;;;;1.02;1.02;;;;;;;26.68;60.88;101944.09;5112212;28;20487;-86
2023/08/23 10:59:01;;;;;;;0.60;0.60;;;;;;;26.79;57.78;101949.59;5111781;28;20054;-87
2023/08/23 11:01:29;;;;;;;0.98;0.98;;;;;;;26.86;56.47;101943.81;5112936;28;20284;-87
2023/08/23 11:03:55;;;;;;;1.65;1.15;;;;;;;26.93;59.97;101938.00;5114231;28;20161;-86
2023/08/23 11:06:21;;;;;;;2.25;1.75;;;;;;;26.89;57.44;101920.53;5099776;28;20028;-86
2023/08/23 11:08:46;;;;;;;1.17;1.10;;;;;;;27.00;57.83;101926.94;5096777;28;20141;-86
2023/08/23 11:11:12;;;;;;;0.97;0.97;;;;;;;27.07;59.07;101925.53;5096676;28;20376;-86
2023/08/23 11:13:38;;;;;;;0.95;0.93;;;;;;;27.18;55.60;101922.16;5106922;28;20621;-86
2023/08/23 11:16:04;;;;;;;;;;;;;;;27.25;57.97;101918.09;5109082;28;20070;-85
2023/08/23 11:18:29;;;;;;;;;;;;;;;27.30;54.30;101915.97;5095894;28;19955;-83
2023/08/23 11:20:54;;;;;;;2.30;2.10;;;;;;;27.24;50.90;101911.94;5111645;28;19958;-84
2023/08/23 11:23:20;;;;;;;;;;;;;;;27.25;55.74;101918.09;5115913;28;20028;-84
2023/08/23 11:25:45;;;;;;;2.33;2.13;;;;;;;27.28;56.44;101901.91;5105731;28;20015;-83
2023/08/23 11:28:12;;;;;;;1.75;1.65;;;;;;;27.35;54.46;101903.16;5113480;28;20383;-83